sensor_id;sensor_type;location;lat;lon;timestamp;P1;durP1;ratioP1;P2;durP2;ratioP2
72590;SDS011;60625;51.212;5.952;2023-08-07T00:01:40;8.80;;;1.90;;
72590;SDS011;60625;51.212;5.952;2023-08-07T00:06:41;10.40;;;1.70;;
72590;SDS011;60625;51.212;5.952;2023-08-07T00:11:41;10.20;;;2.20;;
72590;SDS011;60625;51.212;5.952;2023-08-07T00:16:41;10.40;;;2.00;;
72590;SDS011;60625;51.212;5.952;2023-08-07T00:21:42;10.00;;;2.10;;
72590;SDS011;60625;51.212;5.952;2023-08-07T00:26:43;12.70;;;2.30;;
72590;SDS011;60625;51.212;5.952;2023-08-07T00:31:43;13.80;;;2.20;;
72590;SDS011;60625;51.212;5.952;2023-08-07T00:36:44;11.20;;;2.40;;
72590;SDS011;60625;51.212;5.952;2023-08-07T00:41:44;12.60;;;2.00;;
72590;SDS011;60625;51.212;5.952;2023-08-07T00:46:44;11.30;;;2.20;;
72590;SDS011;60625;51.212;5.952;2023-08-07T00:51:45;13.40;;;2.20;;
72590;SDS011;60625;51.212;5.952;2023-08-07T00:56:46;14.50;;;2.20;;
72590;SDS011;60625;51.212;5.952;2023-08-07T01:01:47;9.90;;;2.30;;
72590;SDS011;60625;51.212;5.952;2023-08-07T01:06:47;12.50;;;2.20;;
72590;SDS011;60625;51.212;5.952;2023-08-07T01:12:02;10.30;;;2.10;;
72590;SDS011;60625;51.212;5.952;2023-08-07T01:17:14;10.30;;;1.90;;
72590;SDS011;60625;51.212;5.952;2023-08-07T01:22:17;11.90;;;2.40;;
72590;SDS011;60625;51.212;5.952;2023-08-07T01:32:35;7.40;;;1.50;;
72590;SDS011;60625;51.212;5.952;2023-08-07T01:37:43;6.60;;;1.80;;
72590;SDS011;60625;51.212;5.952;2023-08-07T01:42:46;8.60;;;1.70;;
72590;SDS011;60625;51.212;5.952;2023-08-07T01:47:47;7.50;;;1.60;;
72590;SDS011;60625;51.212;5.952;2023-08-07T01:52:48;9.80;;;2.00;;
72590;SDS011;60625;51.212;5.952;2023-08-07T01:57:49;6.80;;;1.90;;
72590;SDS011;60625;51.212;5.952;2023-08-07T02:02:49;10.40;;;1.60;;
72590;SDS011;60625;51.212;5.952;2023-08-07T02:07:50;12.30;;;1.90;;
72590;SDS011;60625;51.212;5.952;2023-08-07T02:12:50;12.50;;;1.80;;
72590;SDS011;60625;51.212;5.952;2023-08-07T02:17:51;8.30;;;1.70;;
72590;SDS011;60625;51.212;5.952;2023-08-07T02:22:51;11.30;;;2.20;;
72590;SDS011;60625;51.212;5.952;2023-08-07T02:27:52;9.80;;;2.30;;
72590;SDS011;60625;51.212;5.952;2023-08-07T02:32:52;12.00;;;1.90;;
72590;SDS011;60625;51.212;5.952;2023-08-07T02:37:52;9.60;;;1.70;;
72590;SDS011;60625;51.212;5.952;2023-08-07T02:42:53;10.60;;;2.00;;
72590;SDS011;60625;51.212;5.952;2023-08-07T02:47:54;9.80;;;1.60;;
72590;SDS011;60625;51.212;5.952;2023-08-07T02:52:54;9.60;;;1.70;;
72590;SDS011;60625;51.212;5.952;2023-08-07T02:57:55;12.50;;;1.70;;
72590;SDS011;60625;51.212;5.952;2023-08-07T03:02:56;8.00;;;1.60;;
72590;SDS011;60625;51.212;5.952;2023-08-07T03:07:56;9.90;;;1.90;;
72590;SDS011;60625;51.212;5.952;2023-08-07T03:12:56;9.30;;;2.00;;
72590;SDS011;60625;51.212;5.952;2023-08-07T03:17:57;8.80;;;1.80;;
72590;SDS011;60625;51.212;5.952;2023-08-07T03:22:57;7.70;;;2.00;;
72590;SDS011;60625;51.212;5.952;2023-08-07T03:27:58;8.60;;;1.70;;
72590;SDS011;60625;51.212;5.952;2023-08-07T03:32:59;8.30;;;1.70;;
72590;SDS011;60625;51.212;5.952;2023-08-07T03:38:00;7.80;;;2.10;;
72590;SDS011;60625;51.212;5.952;2023-08-07T03:43:00;8.10;;;1.60;;
72590;SDS011;60625;51.212;5.952;2023-08-07T03:48:01;13.50;;;1.80;;
72590;SDS011;60625;51.212;5.952;2023-08-07T03:53:04;7.20;;;2.10;;
72590;SDS011;60625;51.212;5.952;2023-08-07T03:58:09;9.50;;;1.70;;
72590;SDS011;60625;51.212;5.952;2023-08-07T04:03:10;10.10;;;2.10;;
72590;SDS011;60625;51.212;5.952;2023-08-07T04:08:10;8.40;;;1.80;;
72590;SDS011;60625;51.212;5.952;2023-08-07T04:13:12;12.10;;;2.70;;
72590;SDS011;60625;51.212;5.952;2023-08-07T04:18:12;9.00;;;2.10;;
72590;SDS011;60625;51.212;5.952;2023-08-07T04:23:12;14.10;;;2.20;;
72590;SDS011;60625;51.212;5.952;2023-08-07T04:28:13;10.30;;;2.20;;
72590;SDS011;60625;51.212;5.952;2023-08-07T04:33:14;8.70;;;2.40;;
72590;SDS011;60625;51.212;5.952;2023-08-07T04:38:15;11.50;;;1.70;;
72590;SDS011;60625;51.212;5.952;2023-08-07T04:43:18;8.40;;;2.50;;
72590;SDS011;60625;51.212;5.952;2023-08-07T04:48:22;11.80;;;1.80;;
72590;SDS011;60625;51.212;5.952;2023-08-07T04:53:25;11.00;;;2.10;;
72590;SDS011;60625;51.212;5.952;2023-08-07T04:58:25;13.20;;;2.50;;
72590;SDS011;60625;51.212;5.952;2023-08-07T05:03:26;15.40;;;3.20;;
72590;SDS011;60625;51.212;5.952;2023-08-07T05:08:31;10.90;;;2.30;;
72590;SDS011;60625;51.212;5.952;2023-08-07T05:13:31;13.60;;;2.30;;
72590;SDS011;60625;51.212;5.952;2023-08-07T05:18:32;12.90;;;2.10;;
72590;SDS011;60625;51.212;5.952;2023-08-07T05:23:32;9.20;;;2.40;;
72590;SDS011;60625;51.212;5.952;2023-08-07T05:28:33;13.40;;;2.70;;
72590;SDS011;60625;51.212;5.952;2023-08-07T05:33:33;12.10;;;2.00;;
72590;SDS011;60625;51.212;5.952;2023-08-07T05:38:34;11.00;;;2.20;;
72590;SDS011;60625;51.212;5.952;2023-08-07T05:43:34;10.60;;;1.90;;
72590;SDS011;60625;51.212;5.952;2023-08-07T05:48:34;8.30;;;2.10;;
72590;SDS011;60625;51.212;5.952;2023-08-07T05:53:35;11.10;;;2.40;;
72590;SDS011;60625;51.212;5.952;2023-08-07T05:58:37;11.60;;;2.60;;
72590;SDS011;60625;51.212;5.952;2023-08-07T06:03:37;11.50;;;2.30;;
72590;SDS011;60625;51.212;5.952;2023-08-07T06:08:38;8.90;;;2.10;;
72590;SDS011;60625;51.212;5.952;2023-08-07T06:13:40;11.30;;;2.40;;
72590;SDS011;60625;51.212;5.952;2023-08-07T06:18:41;8.90;;;2.10;;
72590;SDS011;60625;51.212;5.952;2023-08-07T06:23:41;7.10;;;1.80;;
72590;SDS011;60625;51.212;5.952;2023-08-07T06:28:43;7.40;;;1.90;;
72590;SDS011;60625;51.212;5.952;2023-08-07T06:33:43;9.80;;;2.20;;
72590;SDS011;60625;51.212;5.952;2023-08-07T06:38:44;7.70;;;2.40;;
72590;SDS011;60625;51.212;5.952;2023-08-07T06:43:45;8.30;;;2.20;;
72590;SDS011;60625;51.212;5.952;2023-08-07T06:48:47;8.60;;;2.10;;
72590;SDS011;60625;51.212;5.952;2023-08-07T06:53:47;8.30;;;1.90;;
72590;SDS011;60625;51.212;5.952;2023-08-07T06:58:48;8.50;;;2.20;;
72590;SDS011;60625;51.212;5.952;2023-08-07T07:03:49;12.30;;;2.70;;
72590;SDS011;60625;51.212;5.952;2023-08-07T07:08:52;8.60;;;2.10;;
72590;SDS011;60625;51.212;5.952;2023-08-07T07:13:54;13.50;;;2.40;;
72590;SDS011;60625;51.212;5.952;2023-08-07T07:18:54;8.40;;;2.50;;
72590;SDS011;60625;51.212;5.952;2023-08-07T07:23:56;10.40;;;1.80;;
72590;SDS011;60625;51.212;5.952;2023-08-07T07:28:57;9.10;;;2.00;;
72590;SDS011;60625;51.212;5.952;2023-08-07T07:33:57;8.00;;;2.00;;
72590;SDS011;60625;51.212;5.952;2023-08-07T07:38:58;10.20;;;2.30;;
72590;SDS011;60625;51.212;5.952;2023-08-07T07:43:58;7.70;;;2.30;;
72590;SDS011;60625;51.212;5.952;2023-08-07T07:48:59;8.90;;;1.90;;
72590;SDS011;60625;51.212;5.952;2023-08-07T07:54:01;8.80;;;1.90;;
72590;SDS011;60625;51.212;5.952;2023-08-07T07:59:01;8.90;;;1.60;;
72590;SDS011;60625;51.212;5.952;2023-08-07T08:04:02;5.90;;;1.30;;
72590;SDS011;60625;51.212;5.952;2023-08-07T08:09:03;8.70;;;1.70;;
72590;SDS011;60625;51.212;5.952;2023-08-07T08:14:04;7.10;;;1.30;;
72590;SDS011;60625;51.212;5.952;2023-08-07T08:19:06;7.10;;;1.20;;
72590;SDS011;60625;51.212;5.952;2023-08-07T08:24:09;7.90;;;1.80;;
72590;SDS011;60625;51.212;5.952;2023-08-07T08:29:14;8.50;;;1.60;;
72590;SDS011;60625;51.212;5.952;2023-08-07T08:34:14;6.60;;;1.30;;
72590;SDS011;60625;51.212;5.952;2023-08-07T08:39:15;8.20;;;1.60;;
72590;SDS011;60625;51.212;5.952;2023-08-07T08:44:16;7.90;;;1.60;;
72590;SDS011;60625;51.212;5.952;2023-08-07T08:49:23;6.30;;;1.70;;
72590;SDS011;60625;51.212;5.952;2023-08-07T08:54:28;5.90;;;1.70;;
72590;SDS011;60625;51.212;5.952;2023-08-07T08:59:30;6.60;;;1.20;;
72590;SDS011;60625;51.212;5.952;2023-08-07T09:04:30;8.10;;;1.30;;
72590;SDS011;60625;51.212;5.952;2023-08-07T09:09:31;7.50;;;1.60;;
72590;SDS011;60625;51.212;5.952;2023-08-07T09:14:33;5.50;;;1.30;;
72590;SDS011;60625;51.212;5.952;2023-08-07T09:19:34;8.30;;;1.60;;
72590;SDS011;60625;51.212;5.952;2023-08-07T09:24:34;6.30;;;1.20;;
72590;SDS011;60625;51.212;5.952;2023-08-07T09:29:35;5.20;;;1.00;;
72590;SDS011;60625;51.212;5.952;2023-08-07T09:34:39;6.70;;;1.10;;
72590;SDS011;60625;51.212;5.952;2023-08-07T09:39:40;5.50;;;1.40;;
72590;SDS011;60625;51.212;5.952;2023-08-07T09:44:41;6.70;;;1.10;;
72590;SDS011;60625;51.212;5.952;2023-08-07T09:49:43;8.00;;;1.30;;
72590;SDS011;60625;51.212;5.952;2023-08-07T09:54:44;5.90;;;1.20;;
72590;SDS011;60625;51.212;5.952;2023-08-07T09:59:49;9.40;;;1.70;;
72590;SDS011;60625;51.212;5.952;2023-08-07T10:04:51;7.90;;;1.70;;
72590;SDS011;60625;51.212;5.952;2023-08-07T10:09:54;4.10;;;1.00;;
72590;SDS011;60625;51.212;5.952;2023-08-07T10:14:54;6.60;;;1.20;;
72590;SDS011;60625;51.212;5.952;2023-08-07T10:19:56;3.70;;;1.40;;
72590;SDS011;60625;51.212;5.952;2023-08-07T10:25:00;4.80;;;1.30;;
72590;SDS011;60625;51.212;5.952;2023-08-07T10:30:05;4.70;;;1.30;;
72590;SDS011;60625;51.212;5.952;2023-08-07T10:35:07;4.40;;;1.20;;
72590;SDS011;60625;51.212;5.952;2023-08-07T10:40:10;5.70;;;1.40;;
72590;SDS011;60625;51.212;5.952;2023-08-07T10:45:13;5.30;;;1.40;;
72590;SDS011;60625;51.212;5.952;2023-08-07T10:50:17;6.70;;;1.50;;
72590;SDS011;60625;51.212;5.952;2023-08-07T10:55:17;6.40;;;1.80;;
72590;SDS011;60625;51.212;5.952;2023-08-07T11:00:25;7.00;;;1.40;;
72590;SDS011;60625;51.212;5.952;2023-08-07T11:05:27;7.50;;;1.70;;
72590;SDS011;60625;51.212;5.952;2023-08-07T11:10:29;6.00;;;1.40;;
72590;SDS011;60625;51.212;5.952;2023-08-07T11:15:29;8.60;;;1.70;;
72590;SDS011;60625;51.212;5.952;2023-08-07T11:20:32;8.40;;;1.90;;
72590;SDS011;60625;51.212;5.952;2023-08-07T11:25:32;4.80;;;1.50;;
72590;SDS011;60625;51.212;5.952;2023-08-07T11:30:33;6.30;;;1.60;;
72590;SDS011;60625;51.212;5.952;2023-08-07T11:35:34;6.80;;;1.30;;
72590;SDS011;60625;51.212;5.952;2023-08-07T11:40:35;6.20;;;2.00;;
72590;SDS011;60625;51.212;5.952;2023-08-07T11:45:35;8.50;;;1.90;;
72590;SDS011;60625;51.212;5.952;2023-08-07T11:50:37;6.80;;;1.60;;
72590;SDS011;60625;51.212;5.952;2023-08-07T11:55:46;9.00;;;1.70;;
72590;SDS011;60625;51.212;5.952;2023-08-07T12:00:57;8.40;;;1.50;;
72590;SDS011;60625;51.212;5.952;2023-08-07T12:05:58;5.20;;;1.60;;
72590;SDS011;60625;51.212;5.952;2023-08-07T12:11:06;5.70;;;1.70;;
72590;SDS011;60625;51.212;5.952;2023-08-07T12:16:10;7.00;;;1.80;;
72590;SDS011;60625;51.212;5.952;2023-08-07T12:21:17;6.80;;;1.70;;
72590;SDS011;60625;51.212;5.952;2023-08-07T12:26:23;5.50;;;1.40;;
72590;SDS011;60625;51.212;5.952;2023-08-07T12:31:24;6.70;;;1.80;;
72590;SDS011;60625;51.212;5.952;2023-08-07T12:36:25;6.80;;;1.90;;
72590;SDS011;60625;51.212;5.952;2023-08-07T12:41:25;5.80;;;1.70;;
72590;SDS011;60625;51.212;5.952;2023-08-07T12:46:25;11.90;;;1.70;;
72590;SDS011;60625;51.212;5.952;2023-08-07T12:51:26;5.00;;;2.00;;
72590;SDS011;60625;51.212;5.952;2023-08-07T12:56:26;6.10;;;2.20;;
72590;SDS011;60625;51.212;5.952;2023-08-07T13:01:27;5.30;;;1.70;;
72590;SDS011;60625;51.212;5.952;2023-08-07T13:06:27;6.20;;;1.90;;
72590;SDS011;60625;51.212;5.952;2023-08-07T13:11:28;6.50;;;1.80;;
72590;SDS011;60625;51.212;5.952;2023-08-07T13:16:29;9.20;;;2.00;;
72590;SDS011;60625;51.212;5.952;2023-08-07T13:21:29;6.20;;;1.50;;
72590;SDS011;60625;51.212;5.952;2023-08-07T13:26:30;8.10;;;1.80;;
72590;SDS011;60625;51.212;5.952;2023-08-07T13:31:30;7.20;;;1.90;;
72590;SDS011;60625;51.212;5.952;2023-08-07T13:36:31;6.60;;;1.70;;
72590;SDS011;60625;51.212;5.952;2023-08-07T13:41:32;7.90;;;1.80;;
72590;SDS011;60625;51.212;5.952;2023-08-07T13:46:32;6.50;;;1.60;;
72590;SDS011;60625;51.212;5.952;2023-08-07T13:51:33;8.00;;;1.80;;
72590;SDS011;60625;51.212;5.952;2023-08-07T13:56:33;9.20;;;1.70;;
72590;SDS011;60625;51.212;5.952;2023-08-07T14:01:35;6.40;;;1.50;;
72590;SDS011;60625;51.212;5.952;2023-08-07T14:06:35;5.90;;;1.80;;
72590;SDS011;60625;51.212;5.952;2023-08-07T14:11:37;5.40;;;1.80;;
72590;SDS011;60625;51.212;5.952;2023-08-07T14:16:38;7.60;;;1.50;;
72590;SDS011;60625;51.212;5.952;2023-08-07T14:21:38;5.70;;;1.90;;
72590;SDS011;60625;51.212;5.952;2023-08-07T14:26:39;4.80;;;1.50;;
72590;SDS011;60625;51.212;5.952;2023-08-07T14:31:40;5.50;;;1.80;;
72590;SDS011;60625;51.212;5.952;2023-08-07T14:36:40;7.20;;;2.00;;
72590;SDS011;60625;51.212;5.952;2023-08-07T14:41:41;7.40;;;2.30;;
72590;SDS011;60625;51.212;5.952;2023-08-07T14:46:41;4.90;;;1.50;;
72590;SDS011;60625;51.212;5.952;2023-08-07T14:51:42;4.20;;;1.80;;
72590;SDS011;60625;51.212;5.952;2023-08-07T14:56:42;4.70;;;1.50;;
72590;SDS011;60625;51.212;5.952;2023-08-07T15:01:43;3.50;;;1.40;;
72590;SDS011;60625;51.212;5.952;2023-08-07T15:06:43;4.00;;;1.40;;
72590;SDS011;60625;51.212;5.952;2023-08-07T15:11:48;4.60;;;1.40;;
72590;SDS011;60625;51.212;5.952;2023-08-07T15:16:49;3.70;;;1.30;;
72590;SDS011;60625;51.212;5.952;2023-08-07T15:21:50;3.70;;;1.20;;
72590;SDS011;60625;51.212;5.952;2023-08-07T15:26:51;4.70;;;1.10;;
72590;SDS011;60625;51.212;5.952;2023-08-07T15:31:52;2.90;;;0.90;;
72590;SDS011;60625;51.212;5.952;2023-08-07T15:36:52;3.90;;;0.90;;
72590;SDS011;60625;51.212;5.952;2023-08-07T15:41:53;3.10;;;1.00;;
72590;SDS011;60625;51.212;5.952;2023-08-07T15:46:53;4.70;;;1.10;;
72590;SDS011;60625;51.212;5.952;2023-08-07T15:51:54;3.30;;;1.00;;
72590;SDS011;60625;51.212;5.952;2023-08-07T15:56:54;4.20;;;1.20;;
72590;SDS011;60625;51.212;5.952;2023-08-07T16:01:57;3.50;;;1.30;;
72590;SDS011;60625;51.212;5.952;2023-08-07T16:06:58;3.40;;;1.30;;
72590;SDS011;60625;51.212;5.952;2023-08-07T16:11:59;4.90;;;1.40;;
72590;SDS011;60625;51.212;5.952;2023-08-07T16:16:59;3.80;;;0.70;;
72590;SDS011;60625;51.212;5.952;2023-08-07T16:22:00;5.20;;;1.60;;
72590;SDS011;60625;51.212;5.952;2023-08-07T16:27:01;3.80;;;1.00;;
72590;SDS011;60625;51.212;5.952;2023-08-07T16:32:02;3.20;;;1.00;;
72590;SDS011;60625;51.212;5.952;2023-08-07T16:37:04;2.30;;;0.70;;
72590;SDS011;60625;51.212;5.952;2023-08-07T16:42:05;5.70;;;1.60;;
72590;SDS011;60625;51.212;5.952;2023-08-07T16:47:06;3.60;;;1.00;;
72590;SDS011;60625;51.212;5.952;2023-08-07T16:52:07;3.80;;;1.10;;
72590;SDS011;60625;51.212;5.952;2023-08-07T16:57:08;4.30;;;1.00;;
72590;SDS011;60625;51.212;5.952;2023-08-07T17:02:09;3.30;;;1.10;;
72590;SDS011;60625;51.212;5.952;2023-08-07T17:07:10;3.40;;;1.00;;
72590;SDS011;60625;51.212;5.952;2023-08-07T17:12:11;3.10;;;1.20;;
72590;SDS011;60625;51.212;5.952;2023-08-07T17:17:12;3.60;;;1.00;;
72590;SDS011;60625;51.212;5.952;2023-08-07T17:22:12;3.70;;;1.00;;
72590;SDS011;60625;51.212;5.952;2023-08-07T17:27:13;3.90;;;1.20;;
72590;SDS011;60625;51.212;5.952;2023-08-07T17:32:13;3.10;;;1.10;;
72590;SDS011;60625;51.212;5.952;2023-08-07T17:37:14;4.00;;;1.10;;
72590;SDS011;60625;51.212;5.952;2023-08-07T17:42:14;3.90;;;1.20;;
72590;SDS011;60625;51.212;5.952;2023-08-07T17:47:15;4.10;;;1.20;;
72590;SDS011;60625;51.212;5.952;2023-08-07T17:52:15;4.00;;;1.10;;
72590;SDS011;60625;51.212;5.952;2023-08-07T17:57:17;2.90;;;0.90;;
72590;SDS011;60625;51.212;5.952;2023-08-07T18:02:18;3.30;;;1.00;;
72590;SDS011;60625;51.212;5.952;2023-08-07T18:07:18;3.50;;;1.20;;
72590;SDS011;60625;51.212;5.952;2023-08-07T18:12:19;3.10;;;1.10;;
72590;SDS011;60625;51.212;5.952;2023-08-07T18:17:19;3.30;;;1.00;;
72590;SDS011;60625;51.212;5.952;2023-08-07T18:22:20;5.30;;;1.20;;
72590;SDS011;60625;51.212;5.952;2023-08-07T18:27:20;6.00;;;1.10;;
72590;SDS011;60625;51.212;5.952;2023-08-07T18:32:22;3.10;;;1.30;;
72590;SDS011;60625;51.212;5.952;2023-08-07T18:37:23;3.20;;;1.00;;
72590;SDS011;60625;51.212;5.952;2023-08-07T18:42:23;4.80;;;1.10;;
72590;SDS011;60625;51.212;5.952;2023-08-07T18:47:24;4.60;;;1.40;;
72590;SDS011;60625;51.212;5.952;2023-08-07T18:52:24;3.90;;;1.40;;
72590;SDS011;60625;51.212;5.952;2023-08-07T18:57:25;3.80;;;1.20;;
72590;SDS011;60625;51.212;5.952;2023-08-07T19:02:25;4.00;;;1.30;;
72590;SDS011;60625;51.212;5.952;2023-08-07T19:07:27;3.60;;;1.20;;
72590;SDS011;60625;51.212;5.952;2023-08-07T19:12:27;2.80;;;1.00;;
72590;SDS011;60625;51.212;5.952;2023-08-07T19:17:27;5.00;;;1.20;;
72590;SDS011;60625;51.212;5.952;2023-08-07T19:22:29;3.80;;;1.50;;
72590;SDS011;60625;51.212;5.952;2023-08-07T19:27:30;6.10;;;1.60;;
72590;SDS011;60625;51.212;5.952;2023-08-07T19:32:31;7.60;;;1.70;;
72590;SDS011;60625;51.212;5.952;2023-08-07T19:37:32;5.50;;;2.00;;
72590;SDS011;60625;51.212;5.952;2023-08-07T19:42:33;3.80;;;1.70;;
72590;SDS011;60625;51.212;5.952;2023-08-07T19:47:34;3.40;;;1.20;;
72590;SDS011;60625;51.212;5.952;2023-08-07T19:52:35;3.70;;;1.30;;
72590;SDS011;60625;51.212;5.952;2023-08-07T19:57:36;4.30;;;1.70;;
72590;SDS011;60625;51.212;5.952;2023-08-07T20:02:38;4.20;;;1.50;;
72590;SDS011;60625;51.212;5.952;2023-08-07T20:07:38;6.80;;;1.20;;
72590;SDS011;60625;51.212;5.952;2023-08-07T20:12:39;4.90;;;1.60;;
72590;SDS011;60625;51.212;5.952;2023-08-07T20:17:40;5.60;;;1.60;;
72590;SDS011;60625;51.212;5.952;2023-08-07T20:22:43;4.40;;;1.50;;
72590;SDS011;60625;51.212;5.952;2023-08-07T20:27:44;5.50;;;1.60;;
72590;SDS011;60625;51.212;5.952;2023-08-07T20:32:45;4.10;;;1.60;;
72590;SDS011;60625;51.212;5.952;2023-08-07T20:37:45;4.50;;;1.50;;
72590;SDS011;60625;51.212;5.952;2023-08-07T20:42:46;5.20;;;1.40;;
72590;SDS011;60625;51.212;5.952;2023-08-07T20:47:46;5.20;;;1.30;;
72590;SDS011;60625;51.212;5.952;2023-08-07T20:52:46;5.60;;;1.20;;
72590;SDS011;60625;51.212;5.952;2023-08-07T20:57:47;5.00;;;1.60;;
72590;SDS011;60625;51.212;5.952;2023-08-07T21:02:47;6.90;;;1.50;;
72590;SDS011;60625;51.212;5.952;2023-08-07T21:07:49;4.50;;;1.80;;
72590;SDS011;60625;51.212;5.952;2023-08-07T21:12:49;5.20;;;1.30;;
72590;SDS011;60625;51.212;5.952;2023-08-07T21:17:49;6.70;;;1.80;;
72590;SDS011;60625;51.212;5.952;2023-08-07T21:22:51;7.60;;;1.80;;
72590;SDS011;60625;51.212;5.952;2023-08-07T21:27:52;5.50;;;1.70;;
72590;SDS011;60625;51.212;5.952;2023-08-07T21:32:53;5.20;;;2.00;;
72590;SDS011;60625;51.212;5.952;2023-08-07T21:37:53;4.30;;;1.80;;
72590;SDS011;60625;51.212;5.952;2023-08-07T21:42:54;5.90;;;1.30;;
72590;SDS011;60625;51.212;5.952;2023-08-07T21:47:54;6.90;;;1.70;;
72590;SDS011;60625;51.212;5.952;2023-08-07T21:52:54;4.00;;;1.50;;
72590;SDS011;60625;51.212;5.952;2023-08-07T21:57:55;6.50;;;1.60;;
72590;SDS011;60625;51.212;5.952;2023-08-07T22:02:56;5.00;;;1.60;;
72590;SDS011;60625;51.212;5.952;2023-08-07T22:07:56;4.40;;;1.60;;
72590;SDS011;60625;51.212;5.952;2023-08-07T22:13:00;4.30;;;1.50;;
72590;SDS011;60625;51.212;5.952;2023-08-07T22:18:01;4.00;;;1.60;;
72590;SDS011;60625;51.212;5.952;2023-08-07T22:23:01;5.80;;;1.20;;
72590;SDS011;60625;51.212;5.952;2023-08-07T22:28:02;5.80;;;1.60;;
72590;SDS011;60625;51.212;5.952;2023-08-07T22:33:02;3.80;;;1.50;;
72590;SDS011;60625;51.212;5.952;2023-08-07T22:38:03;7.30;;;1.60;;
72590;SDS011;60625;51.212;5.952;2023-08-07T22:43:04;4.30;;;1.60;;
72590;SDS011;60625;51.212;5.952;2023-08-07T22:48:04;4.70;;;1.40;;
72590;SDS011;60625;51.212;5.952;2023-08-07T22:53:05;4.00;;;1.40;;
72590;SDS011;60625;51.212;5.952;2023-08-07T22:58:05;4.30;;;1.90;;
72590;SDS011;60625;51.212;5.952;2023-08-07T23:03:06;4.20;;;1.60;;
72590;SDS011;60625;51.212;5.952;2023-08-07T23:08:06;5.00;;;1.40;;
72590;SDS011;60625;51.212;5.952;2023-08-07T23:13:07;4.20;;;1.40;;
72590;SDS011;60625;51.212;5.952;2023-08-07T23:18:07;5.10;;;1.60;;
72590;SDS011;60625;51.212;5.952;2023-08-07T23:23:08;4.10;;;1.50;;
72590;SDS011;60625;51.212;5.952;2023-08-07T23:28:08;6.30;;;2.00;;
72590;SDS011;60625;51.212;5.952;2023-08-07T23:33:09;4.90;;;2.00;;
72590;SDS011;60625;51.212;5.952;2023-08-07T23:38:09;4.20;;;1.40;;
72590;SDS011;60625;51.212;5.952;2023-08-07T23:43:10;4.70;;;1.70;;
72590;SDS011;60625;51.212;5.952;2023-08-07T23:48:11;5.70;;;1.90;;
72590;SDS011;60625;51.212;5.952;2023-08-07T23:53:12;6.00;;;2.50;;
72590;SDS011;60625;51.212;5.952;2023-08-07T23:58:12;4.10;;;2.00;;
